createdAt,value
2022-11-13T00:01:15.629Z,100760.09
2022-11-13T00:03:42.888Z,100755.88
2022-11-13T00:06:12.254Z,100757.53
2022-11-13T00:08:39.262Z,100757.53
2022-11-13T00:11:18.458Z,100752.44
2022-11-13T00:13:47.068Z,100748.19
2022-11-13T00:16:18.070Z,100754.06
2022-11-13T00:18:46.284Z,100738.00
2022-11-13T00:21:23.424Z,100743.03
2022-11-13T00:23:51.743Z,100744.69
2022-11-13T00:26:27.584Z,100737.94
2022-11-13T00:28:58.226Z,100743.00
2022-11-13T00:31:25.910Z,100745.53
2022-11-13T00:36:39.717Z,100731.13
2022-11-13T00:39:06.443Z,100731.97
2022-11-13T00:41:33.137Z,100739.63
2022-11-13T00:43:59.866Z,100729.44
2022-11-13T00:46:26.559Z,100730.22
2022-11-13T00:48:53.328Z,100721.78
2022-11-13T00:51:20.168Z,100721.75
2022-11-13T00:53:47.255Z,100716.63
2022-11-13T00:56:14.206Z,100707.28
2022-11-13T00:58:40.949Z,100705.56
2022-11-13T01:01:16.186Z,100697.94
2022-11-13T01:03:43.865Z,100701.22
2022-11-13T01:06:30.885Z,100694.47
2022-11-13T01:09:02.060Z,100703.75
2022-11-13T01:11:30.574Z,100699.50
2022-11-13T01:13:58.038Z,100707.09
2022-11-13T01:16:28.532Z,100699.53
2022-11-13T01:18:56.335Z,100696.97
2022-11-13T01:21:27.254Z,100696.13
2022-11-13T01:23:55.183Z,100690.19
2022-11-13T01:26:27.358Z,100686.75
2022-11-13T01:28:56.197Z,100681.63
2022-11-13T01:31:27.025Z,100683.31
2022-11-13T01:33:54.244Z,100678.19
2022-11-13T01:36:26.124Z,100674.81
2022-11-13T01:38:54.564Z,100679.84
2022-11-13T01:41:30.140Z,100675.53
2022-11-13T01:43:57.930Z,100676.34
2022-11-13T01:46:33.144Z,100672.97
2022-11-13T01:49:11.817Z,100667.06
2022-11-13T01:51:54.767Z,100668.72
2022-11-13T01:54:29.078Z,100656.84
2022-11-13T01:56:56.965Z,100659.41
2022-11-13T01:59:32.257Z,100649.28
2022-11-13T02:01:59.418Z,100649.34
2022-11-13T02:04:28.506Z,100650.19
2022-11-13T02:07:15.489Z,100645.13
2022-11-13T02:09:49.345Z,100641.75
2022-11-13T02:12:23.984Z,100636.63
2022-11-13T02:14:54.296Z,100631.53
2022-11-13T02:17:55.209Z,100633.22
2022-11-13T02:20:53.116Z,100629.78
2022-11-13T02:23:41.218Z,100633.97
2022-11-13T02:26:10.734Z,100626.38
2022-11-13T02:28:37.513Z,100632.34
2022-11-13T02:31:13.399Z,100631.50
2022-11-13T02:33:40.852Z,100626.50
2022-11-13T02:36:10.199Z,100626.56
2022-11-13T02:38:40.200Z,100638.44
2022-11-13T02:41:06.931Z,100624.91
2022-11-13T02:43:33.801Z,100622.38
2022-11-13T02:46:00.705Z,100630.09
2022-11-13T02:48:27.870Z,100627.56
2022-11-13T02:50:54.873Z,100628.44
2022-11-13T02:53:21.558Z,100617.44
2022-11-13T02:55:48.320Z,100620.84
2022-11-13T02:58:15.114Z,100610.72
2022-11-13T03:00:41.848Z,100603.97
2022-11-13T03:03:08.768Z,100610.72
2022-11-13T03:05:35.482Z,100604.78
2022-11-13T03:08:02.207Z,100603.94
2022-11-13T03:10:28.954Z,100608.91
2022-11-13T03:12:55.653Z,100599.56
2022-11-13T03:15:22.943Z,100592.78
2022-11-13T03:17:49.828Z,100580.03
2022-11-13T03:20:17.331Z,100592.66
2022-11-13T03:22:44.075Z,100585.06
2022-11-13T03:25:11.238Z,100597.66
2022-11-13T03:27:38.145Z,100589.16
2022-11-13T03:30:06.276Z,100589.06
2022-11-13T03:32:33.030Z,100584.78
2022-11-13T03:34:59.793Z,100587.22
2022-11-13T03:37:26.478Z,100582.09
2022-11-13T03:39:53.197Z,100582.88
2022-11-13T03:42:19.980Z,100582.00
2022-11-13T03:44:46.807Z,100582.84
2022-11-13T03:47:14.736Z,100580.25
2022-11-13T03:49:41.543Z,100576.06
2022-11-13T03:52:08.291Z,100576.88
2022-11-13T03:54:35.024Z,100572.66
2022-11-13T03:57:01.806Z,100577.72
2022-11-13T03:59:28.541Z,100571.81
2022-11-13T04:01:55.350Z,100569.31
2022-11-13T04:04:22.419Z,100562.56
2022-11-13T04:06:49.153Z,100560.91
2022-11-13T04:09:16.041Z,100567.63
2022-11-13T04:11:42.834Z,100570.13
2022-11-13T04:14:09.549Z,100569.28
2022-11-13T04:16:36.290Z,100569.28
2022-11-13T04:19:03.315Z,100566.69
2022-11-13T04:21:30.205Z,100566.66
2022-11-13T04:23:56.905Z,100563.28
2022-11-13T04:26:23.611Z,100559.06
2022-11-13T04:28:50.400Z,100565.03
2022-11-13T04:31:17.128Z,100556.59
2022-11-13T04:33:43.869Z,100554.91
2022-11-13T04:36:10.668Z,100554.97
2022-11-13T04:38:37.392Z,100547.44
2022-11-13T04:41:22.931Z,100544.97
2022-11-13T04:43:49.643Z,100541.59
2022-11-13T04:46:16.645Z,100543.34
2022-11-13T04:48:43.374Z,100547.59
2022-11-13T04:51:10.065Z,100535.78
2022-11-13T04:53:36.803Z,100541.72
2022-11-13T04:56:03.828Z,100545.06
2022-11-13T04:58:30.850Z,100536.59
2022-11-13T05:00:57.821Z,100532.38
2022-11-13T05:03:24.600Z,100524.75
2022-11-13T05:05:51.309Z,100532.34
2022-11-13T05:08:18.066Z,100525.56
2022-11-13T05:10:44.785Z,100517.94
2022-11-13T05:13:11.493Z,100529.75
2022-11-13T05:15:38.200Z,100532.28
2022-11-13T05:18:05.046Z,100531.41
2022-11-13T05:20:31.767Z,100522.91
2022-11-13T05:22:58.549Z,100529.63
2022-11-13T05:25:25.298Z,100526.22
2022-11-13T05:27:52.003Z,100517.75
2022-11-13T05:30:18.902Z,100517.72
2022-11-13T05:32:45.674Z,100510.91
2022-11-13T05:35:12.395Z,100509.19
2022-11-13T05:37:39.073Z,100500.72
2022-11-13T05:40:06.745Z,100497.28
2022-11-13T05:42:33.483Z,100498.09
2022-11-13T05:45:00.252Z,100503.94
2022-11-13T05:47:27.070Z,100497.97
2022-11-13T05:49:53.771Z,100502.09
2022-11-13T05:52:20.494Z,100496.09
2022-11-13T05:54:47.179Z,100488.47
2022-11-13T05:57:13.882Z,100488.41
2022-11-13T05:59:40.592Z,100487.53
2022-11-13T06:02:07.360Z,100493.38
2022-11-13T06:04:34.280Z,100488.25
2022-11-13T06:07:01.086Z,100484.06
2022-11-13T06:09:27.877Z,100482.31
2022-11-13T06:11:54.571Z,100484.03
2022-11-13T06:14:21.296Z,100475.59
2022-11-13T06:16:47.992Z,100475.59
2022-11-13T06:19:14.755Z,100479.03
2022-11-13T06:21:41.733Z,100470.63
2022-11-13T06:24:12.069Z,100469.81
2022-11-13T06:26:39.067Z,100471.50
2022-11-13T06:29:08.333Z,100469.81
2022-11-13T06:31:36.797Z,100464.78
2022-11-13T06:34:05.505Z,100461.44
2022-11-13T06:36:36.343Z,100463.13
2022-11-13T06:39:07.966Z,100463.13
2022-11-13T06:41:35.176Z,100464.03
2022-11-13T06:44:03.358Z,100455.63
2022-11-13T06:46:31.073Z,100458.16
2022-11-13T06:48:58.675Z,100458.19
2022-11-13T06:51:30.288Z,100453.16
2022-11-13T06:53:58.143Z,100454.03
2022-11-13T06:56:25.571Z,100459.13
2022-11-13T06:58:54.372Z,100458.28
2022-11-13T07:01:25.288Z,100465.91
2022-11-13T07:03:52.110Z,100455.09
2022-11-13T07:06:24.120Z,100462.84
2022-11-13T07:08:51.761Z,100463.00
2022-11-13T07:11:23.318Z,100454.75
2022-11-13T07:13:50.697Z,100460.84
2022-11-13T07:16:18.506Z,100458.53
2022-11-13T07:18:53.283Z,100470.63
2022-11-13T07:21:21.755Z,100458.41
2022-11-13T07:23:50.355Z,100453.75
2022-11-13T07:26:18.386Z,100453.28
2022-11-13T07:28:46.546Z,100459.41
2022-11-13T07:31:16.149Z,100452.75
2022-11-13T07:33:43.635Z,100451.91
2022-11-13T07:36:11.270Z,100445.09
2022-11-13T07:38:37.938Z,100443.31
2022-11-13T07:41:05.365Z,100447.56
2022-11-13T07:43:32.215Z,100448.50
2022-11-13T07:46:00.516Z,100447.94
2022-11-13T07:48:28.388Z,100444.75
2022-11-13T07:51:00.128Z,100439.00
2022-11-13T07:53:26.949Z,100444.94
2022-11-13T07:55:53.658Z,100435.38
2022-11-13T07:58:20.387Z,100435.78
2022-11-13T08:00:47.251Z,100441.09
2022-11-13T08:03:17.882Z,100426.72
2022-11-13T08:05:44.706Z,100431.06
2022-11-13T08:08:15.362Z,100425.91
2022-11-13T08:10:42.617Z,100419.84
2022-11-13T08:13:11.088Z,100425.56
2022-11-13T08:15:38.372Z,100415.00
2022-11-13T08:18:06.313Z,100409.56
2022-11-13T08:20:33.907Z,100409.44
2022-11-13T08:23:03.657Z,100412.31
2022-11-13T08:25:32.770Z,100412.75
2022-11-13T08:28:00.219Z,100407.22
2022-11-13T08:30:28.625Z,100405.06
2022-11-13T08:32:55.497Z,100408.19
2022-11-13T08:35:28.083Z,100402.63
2022-11-13T08:38:05.500Z,100395.31
2022-11-13T08:40:32.453Z,100392.03
2022-11-13T08:43:04.342Z,100389.56
2022-11-13T08:45:31.381Z,100386.34
2022-11-13T08:48:03.093Z,100390.00
2022-11-13T08:50:32.851Z,100385.06
2022-11-13T08:53:01.241Z,100387.13
2022-11-13T08:55:28.319Z,100392.41
2022-11-13T08:58:00.201Z,100377.81
2022-11-13T09:00:29.039Z,100378.72
2022-11-13T09:02:57.545Z,100376.88
2022-11-13T09:05:25.654Z,100376.22
2022-11-13T09:08:00.566Z,100366.81
2022-11-13T09:10:28.395Z,100364.56
2022-11-13T09:13:04.224Z,100368.25
2022-11-13T09:15:32.695Z,100361.84
2022-11-13T09:18:02.704Z,100361.59
2022-11-13T09:20:32.137Z,100357.38
2022-11-13T09:23:09.178Z,100352.16
2022-11-13T09:25:38.043Z,100351.44
2022-11-13T09:28:06.448Z,100348.13
2022-11-13T09:30:34.348Z,100350.72
2022-11-13T09:33:02.195Z,100351.66
2022-11-13T09:35:37.556Z,100344.72
2022-11-13T09:38:11.581Z,100358.47
2022-11-13T09:41:01.683Z,100347.31
2022-11-13T09:43:49.296Z,100352.47
2022-11-13T09:46:51.409Z,100352.22
2022-11-13T09:49:29.462Z,100357.81
2022-11-13T09:52:06.406Z,100346.50
2022-11-13T09:54:34.117Z,100344.59
2022-11-13T09:57:35.843Z,100342.47
2022-11-13T10:00:12.117Z,100334.38
2022-11-13T10:03:03.299Z,100338.31
2022-11-13T10:06:02.628Z,100333.50
2022-11-13T10:08:55.901Z,100339.00
2022-11-13T10:12:04.519Z,100335.34
2022-11-13T10:14:46.275Z,100331.16
2022-11-13T10:17:37.127Z,100331.03
2022-11-13T10:20:25.451Z,100333.31
2022-11-13T10:23:01.399Z,100322.59
2022-11-13T10:25:35.832Z,100320.91
2022-11-13T10:28:43.287Z,100314.19
2022-11-13T10:30:59.229Z,100321.44
2022-11-13T10:33:26.320Z,100312.06
2022-11-13T10:36:02.574Z,100316.59
2022-11-13T10:38:42.795Z,100310.75
2022-11-13T10:41:21.426Z,100308.59
2022-11-13T10:43:58.839Z,100306.75
2022-11-13T10:46:32.907Z,100304.78
2022-11-13T10:49:22.447Z,100302.72
2022-11-13T10:52:08.419Z,100296.16
2022-11-13T10:54:38.290Z,100286.28
2022-11-13T10:57:30.160Z,100287.47
2022-11-13T10:59:56.920Z,100281.78
2022-11-13T11:02:27.150Z,100281.72
2022-11-13T11:05:21.289Z,100279.78
2022-11-13T11:07:48.281Z,100276.22
2022-11-13T11:10:21.071Z,100268.59
2022-11-13T11:13:05.516Z,100269.88
2022-11-13T11:15:56.345Z,100256.34
2022-11-13T11:18:32.242Z,100262.41
2022-11-13T11:21:05.011Z,100267.56
2022-11-13T11:24:06.660Z,100258.47
2022-11-13T11:26:45.129Z,100262.31
2022-11-13T11:29:49.529Z,100252.59
2022-11-13T11:32:38.647Z,100254.84
2022-11-13T11:35:41.927Z,100254.47
2022-11-13T11:38:44.850Z,100251.06
2022-11-13T11:41:19.093Z,100250.78
2022-11-13T11:43:51.137Z,100247.00
2022-11-13T11:46:24.521Z,100248.19
2022-11-13T11:48:59.296Z,100238.31
2022-11-13T11:51:37.293Z,100234.38
2022-11-13T11:54:34.310Z,100225.34
2022-11-13T11:57:34.777Z,100231.16
2022-11-13T12:00:14.308Z,100224.91
2022-11-13T12:03:34.612Z,100221.50
2022-11-13T12:06:18.396Z,100213.84
2022-11-13T12:09:00.136Z,100222.28
2022-11-13T12:11:34.945Z,100210.72
2022-11-13T12:14:27.943Z,100207.81
2022-11-13T12:17:11.880Z,100201.19
2022-11-13T12:20:30.620Z,100202.59
2022-11-13T12:23:15.592Z,100197.00
2022-11-13T12:25:53.619Z,100187.06
2022-11-13T12:28:41.204Z,100187.41
2022-11-13T12:31:30.605Z,100180.94
2022-11-13T12:34:20.907Z,100172.69
2022-11-13T12:36:48.636Z,100171.19
2022-11-13T12:39:49.047Z,100168.78
2022-11-13T12:42:34.146Z,100162.81
2022-11-13T12:45:16.655Z,100157.84
2022-11-13T12:47:44.916Z,100156.25
2022-11-13T12:50:41.190Z,100152.13
2022-11-13T12:53:24.915Z,100153.97
2022-11-13T12:56:02.777Z,100151.56
2022-11-13T12:58:33.281Z,100153.47
2022-11-13T13:01:11.969Z,100143.34
2022-11-13T13:03:41.494Z,100143.50
2022-11-13T13:06:51.820Z,100132.63
2022-11-13T13:09:50.959Z,100124.34
2022-11-13T13:12:47.983Z,100112.53
2022-11-13T13:15:40.845Z,100114.47
2022-11-13T13:18:30.805Z,100114.59
2022-11-13T13:21:00.174Z,100114.69
2022-11-13T13:23:32.189Z,100112.16
2022-11-13T13:26:23.945Z,100104.63
2022-11-13T13:29:05.296Z,100101.28
2022-11-13T13:32:21.392Z,100100.59
2022-11-13T13:35:17.600Z,100102.38
2022-11-13T13:38:26.464Z,100101.63
2022-11-13T13:41:16.978Z,100104.28
2022-11-13T13:44:02.354Z,100103.59
2022-11-13T13:46:34.085Z,100095.13
2022-11-13T13:49:12.169Z,100087.53
2022-11-13T13:52:15.002Z,100079.16
2022-11-13T13:54:43.631Z,100076.69
2022-11-13T13:57:15.838Z,100078.34
2022-11-13T13:59:46.732Z,100069.03
2022-11-13T14:02:23.535Z,100070.75
2022-11-13T14:04:54.337Z,100073.28
2022-11-13T14:07:30.234Z,100064.78
2022-11-13T14:10:23.545Z,100067.44
2022-11-13T14:12:50.769Z,100066.59
2022-11-13T14:15:23.868Z,100056.41
2022-11-13T14:17:50.882Z,100056.47
2022-11-13T14:20:18.844Z,100049.69
2022-11-13T14:22:55.237Z,100048.00
2022-11-13T14:25:29.184Z,100044.69
2022-11-13T14:27:55.973Z,100043.94
2022-11-13T14:30:28.308Z,100037.97
2022-11-13T14:32:55.372Z,100037.25
2022-11-13T14:35:26.805Z,100033.09
2022-11-13T14:37:55.238Z,100031.41
2022-11-13T14:40:31.511Z,100028.06
2022-11-13T14:43:05.322Z,100019.47
2022-11-13T14:45:33.942Z,100022.97
2022-11-13T14:48:51.597Z,100013.78
2022-11-13T14:51:32.272Z,100019.94
2022-11-13T14:54:08.889Z,100017.41
2022-11-13T14:56:41.498Z,100016.56
2022-11-13T14:59:19.727Z,100013.22
2022-11-13T15:01:57.916Z,100014.19
2022-11-13T15:04:25.428Z,100012.56
2022-11-13T15:06:55.764Z,100015.25
2022-11-13T15:09:25.228Z,100019.63
2022-11-13T15:11:52.547Z,100011.09
2022-11-13T15:14:21.956Z,100005.22
2022-11-13T15:16:52.701Z,100016.44
2022-11-13T15:19:31.559Z,100013.09
2022-11-13T15:22:28.635Z,100014.91
2022-11-13T15:24:45.116Z,100015.06
2022-11-13T15:27:16.842Z,100013.41
2022-11-13T15:29:44.581Z,100010.09
2022-11-13T15:32:14.523Z,100013.59
2022-11-13T15:34:41.556Z,100010.25
2022-11-13T15:37:14.491Z,100016.28
2022-11-13T15:39:41.331Z,100011.34
2022-11-13T15:42:15.648Z,100020.81
2022-11-13T15:44:42.376Z,100014.97
2022-11-13T15:47:35.358Z,100022.78
2022-11-13T15:50:20.182Z,100011.81
2022-11-13T15:52:52.004Z,100000.06
2022-11-13T15:55:26.762Z,100004.47
2022-11-13T15:57:55.447Z,99995.22
2022-11-13T16:00:26.713Z,99998.72
2022-11-13T16:02:56.050Z,99994.59
2022-11-13T16:05:25.686Z,99994.72
2022-11-13T16:07:54.000Z,99987.19
2022-11-13T16:10:22.660Z,99998.34
2022-11-13T16:12:49.440Z,99991.63
2022-11-13T16:15:17.555Z,99981.50
2022-11-13T16:17:53.248Z,99982.44
2022-11-13T16:20:20.143Z,99985.94
2022-11-13T16:22:47.536Z,99990.25
2022-11-13T16:25:20.117Z,99992.03
2022-11-13T16:27:47.870Z,99991.25
2022-11-13T16:30:21.136Z,99991.34
2022-11-13T16:32:48.157Z,99992.31
2022-11-13T16:35:17.846Z,99992.38
2022-11-13T16:37:45.189Z,99994.19
2022-11-13T16:40:22.119Z,99994.25
2022-11-13T16:42:48.979Z,99996.88
2022-11-13T16:45:16.024Z,99985.09
2022-11-13T16:47:43.050Z,99978.38
2022-11-13T16:50:17.064Z,99981.88
2022-11-13T16:52:44.064Z,99969.19
2022-11-13T16:55:11.053Z,99966.69
2022-11-13T16:57:38.208Z,99960.78
2022-11-13T17:00:11.983Z,99959.97
2022-11-13T17:02:39.004Z,99957.47
2022-11-13T17:05:06.798Z,99950.69
2022-11-13T17:07:33.608Z,99952.47
2022-11-13T17:10:29.045Z,99948.25
2022-11-13T17:12:52.161Z,99947.50
2022-11-13T17:15:20.215Z,99945.84
2022-11-13T17:17:47.508Z,99946.75
2022-11-13T17:20:17.268Z,99962.91
2022-11-13T17:22:48.199Z,99956.22
2022-11-13T17:25:18.871Z,99950.31
2022-11-13T17:27:45.606Z,99936.81
2022-11-13T17:30:13.510Z,99942.78
2022-11-13T17:32:40.304Z,99931.78
2022-11-13T17:35:07.548Z,99936.06
2022-11-13T17:37:34.511Z,99932.72
2022-11-13T17:40:01.429Z,99932.81
2022-11-13T17:42:28.584Z,99926.94
2022-11-13T17:44:55.675Z,99929.56
2022-11-13T17:47:22.769Z,99934.72
2022-11-13T17:49:49.574Z,99936.47
2022-11-13T17:52:16.433Z,99935.69
2022-11-13T17:54:43.137Z,99933.13
2022-11-13T17:57:10.386Z,99934.03
2022-11-13T17:59:37.231Z,99931.53
2022-11-13T18:02:04.187Z,99932.44
2022-11-13T18:04:30.948Z,99931.59
2022-11-13T18:06:58.439Z,99929.94
2022-11-13T18:09:25.200Z,99935.03
2022-11-13T18:11:52.059Z,99931.69
2022-11-13T18:14:19.057Z,99925.78
2022-11-13T18:16:46.186Z,99921.59
2022-11-13T18:19:13.198Z,99923.31
2022-11-13T18:21:40.939Z,99919.09
2022-11-13T18:24:15.889Z,99924.19
2022-11-13T18:26:43.088Z,99923.38
2022-11-13T18:29:10.365Z,99925.91
2022-11-13T18:31:37.453Z,99918.31
2022-11-13T18:34:06.649Z,99909.84
2022-11-13T18:36:34.692Z,99902.25
2022-11-13T18:39:03.197Z,99903.09
2022-11-13T18:41:32.418Z,99903.13
2022-11-13T18:43:59.315Z,99893.81
2022-11-13T18:46:26.139Z,99882.84
2022-11-13T18:48:55.111Z,99879.47
2022-11-13T18:51:24.976Z,99878.63
2022-11-13T18:53:52.988Z,99891.31
2022-11-13T18:56:28.174Z,99877.81
2022-11-13T18:58:56.860Z,99874.44
2022-11-13T19:01:31.425Z,99871.06
2022-11-13T19:04:22.357Z,99864.31
2022-11-13T19:06:50.407Z,99869.38
2022-11-13T19:09:18.768Z,99864.31
2022-11-13T19:11:46.288Z,99866.03
2022-11-13T19:14:18.542Z,99857.56
2022-11-13T19:16:45.723Z,99847.41
2022-11-13T19:19:22.679Z,99848.25
2022-11-13T19:21:50.025Z,99849.97
2022-11-13T19:24:17.205Z,99850.78
2022-11-13T19:26:44.799Z,99856.69
2022-11-13T19:29:12.468Z,99860.94
2022-11-13T19:31:39.383Z,99854.19
2022-11-13T19:34:07.970Z,99859.25
2022-11-13T19:36:36.228Z,99852.50
2022-11-13T19:39:05.042Z,99858.41
2022-11-13T19:41:32.145Z,99849.97
2022-11-13T19:44:00.307Z,99848.25
2022-11-13T19:46:28.996Z,99849.97
2022-11-13T19:48:55.729Z,99842.34
2022-11-13T19:51:26.176Z,99842.38
2022-11-13T19:53:59.620Z,99839.84
2022-11-13T19:56:28.453Z,99835.59
2022-11-13T19:58:56.005Z,99835.59
2022-11-13T20:01:26.402Z,99833.94
2022-11-13T20:03:59.483Z,99830.53
2022-11-13T20:06:28.572Z,99829.69
2022-11-13T20:08:55.640Z,99829.72
2022-11-13T20:11:22.498Z,99819.56
2022-11-13T20:13:49.389Z,99811.09
2022-11-13T20:16:17.579Z,99817.88
2022-11-13T20:18:44.980Z,99812.81
2022-11-13T20:21:11.872Z,99812.81
2022-11-13T20:23:38.985Z,99802.69
2022-11-13T20:26:10.678Z,99801.81
2022-11-13T20:28:37.585Z,99801.84
2022-11-13T20:31:17.506Z,99806.06
2022-11-13T20:33:44.295Z,99811.97
2022-11-13T20:36:11.385Z,99805.22
2022-11-13T20:38:38.691Z,99795.91
2022-11-13T20:41:08.382Z,99802.66
2022-11-13T20:43:35.265Z,99801.84
2022-11-13T20:46:09.946Z,99798.44
2022-11-13T20:48:37.486Z,99793.38
2022-11-13T20:51:10.603Z,99800.09
2022-11-13T20:53:37.525Z,99794.19
2022-11-13T20:56:04.838Z,99784.06
2022-11-13T20:58:31.982Z,99797.53
2022-11-13T21:01:21.023Z,99788.22
2022-11-13T21:03:48.708Z,99788.22
2022-11-13T21:06:19.648Z,99788.19
2022-11-13T21:08:47.211Z,99783.16
2022-11-13T21:11:29.300Z,99783.97
2022-11-13T21:13:57.488Z,99788.19
2022-11-13T21:16:24.657Z,99782.25
2022-11-13T21:18:51.668Z,99781.41
2022-11-13T21:21:22.644Z,99780.56
2022-11-13T21:23:49.631Z,99773.81
2022-11-13T21:26:16.930Z,99772.97
2022-11-13T21:28:44.313Z,99767.06
2022-11-13T21:31:20.423Z,99770.44
2022-11-13T21:33:48.778Z,99763.69
2022-11-13T21:36:21.951Z,99756.13
2022-11-13T21:38:53.675Z,99751.91
2022-11-13T21:41:22.088Z,99749.38
2022-11-13T21:44:04.542Z,99749.41
2022-11-13T21:46:34.760Z,99735.06
2022-11-13T21:49:06.746Z,99743.47
2022-11-13T21:51:36.586Z,99734.19
2022-11-13T21:54:04.604Z,99736.75
2022-11-13T21:56:34.268Z,99737.59
2022-11-13T21:59:01.200Z,99725.78
2022-11-13T22:01:28.096Z,99725.78
2022-11-13T22:03:55.123Z,99718.16
2022-11-13T22:06:31.591Z,99722.41
2022-11-13T22:09:12.024Z,99724.06
2022-11-13T22:11:38.918Z,99717.28
2022-11-13T22:14:06.805Z,99717.28
2022-11-13T22:16:37.087Z,99709.72
2022-11-13T22:19:07.288Z,99706.31
2022-11-13T22:21:35.264Z,99697.03
2022-11-13T22:24:02.248Z,99697.88
2022-11-13T22:26:31.134Z,99701.22
2022-11-13T22:29:00.054Z,99695.31
2022-11-13T22:31:30.724Z,99692.78
2022-11-13T22:33:58.070Z,99699.50
2022-11-13T22:36:37.167Z,99686.88
2022-11-13T22:39:05.198Z,99691.06
2022-11-13T22:41:34.641Z,99694.44
2022-11-13T22:44:07.303Z,99689.41
2022-11-13T22:46:36.220Z,99688.53
2022-11-13T22:49:05.597Z,99688.53
2022-11-13T22:51:38.644Z,99701.19
2022-11-13T22:54:11.455Z,99689.38
2022-11-13T22:56:40.845Z,99682.63
2022-11-13T22:59:11.988Z,99680.09
2022-11-13T23:01:41.397Z,99680.91
2022-11-13T23:04:13.112Z,99682.59
2022-11-13T23:06:39.976Z,99669.91
2022-11-13T23:09:07.138Z,99674.09
2022-11-13T23:11:40.484Z,99673.22
2022-11-13T23:14:11.879Z,99666.44
2022-11-13T23:16:39.071Z,99668.97
2022-11-13T23:19:06.229Z,99670.63
2022-11-13T23:21:33.721Z,99662.19
2022-11-13T23:24:00.944Z,99657.94
2022-11-13T23:26:28.658Z,99648.69
2022-11-13T23:28:56.664Z,99649.44
2022-11-13T23:31:24.001Z,99639.31
2022-11-13T23:33:50.781Z,99641.84
2022-11-13T23:36:20.469Z,99643.50
2022-11-13T23:38:47.502Z,99635.03
2022-11-13T23:41:14.376Z,99638.41
2022-11-13T23:44:10.860Z,99635.88
2022-11-13T23:46:27.969Z,99628.25
2022-11-13T23:48:54.761Z,99624.03
2022-11-13T23:51:21.462Z,99625.69
2022-11-13T23:53:48.212Z,99625.69
2022-11-13T23:56:14.930Z,99627.38
2022-11-13T23:58:41.711Z,99620.63
